.
WxDataArchive / Data Records for 2006-12-12
2006-12-11 December 2006 2006-12-13

Data Records for Tuesday, 12 December 2006

Time	Temp	Chill	HIndex	Humid	Dewpt	 Wind 	HiWind	WindDir	Rain 	Barom 
-----	----	-----	------	-----	-----	------	------	-------	-----	----- 
00:00	46.0	46.0	46.0	65	34.9	2	5	112	0.00	30.257 
00:05	46.4	46.4	46.4	64	34.9	2	5	112	0.00	30.257 
00:10	46.7	46.7	46.7	64	35.2	1	4	112	0.00	30.257 
00:15	47.0	47.0	47.0	64	35.5	1	4	112	0.00	30.253 
00:20	47.3	47.3	47.3	64	35.7	2	4	112	0.00	30.253 
00:25	47.3	47.3	47.3	66	36.5	1	4	135	0.00	30.253 
00:30	47.3	47.3	47.3	66	36.5	2	4	112	0.00	30.251 
00:35	47.3	47.3	47.3	67	36.9	2	3	112	0.00	30.251 
00:40	47.1	47.1	47.1	67	36.7	1	4	135	0.00	30.251 
00:45	47.1	47.1	47.1	67	36.7	2	5	112	0.00	30.246 
00:50	47.3	47.3	47.3	67	36.9	1	4	112	0.00	30.246 
00:55	47.3	47.3	47.3	67	36.9	2	5	112	0.00	30.246 
01:00	47.1	47.1	47.1	67	36.7	2	5	112	0.00	30.242 
01:05	47.1	47.1	47.1	67	36.7	2	3	112	0.00	30.242 
01:10	47.0	47.0	47.0	68	37.0	1	3	112	0.00	30.242 
01:15	46.8	46.8	46.8	69	37.2	1	3	90	0.00	30.236 
01:20	46.5	46.5	46.5	69	36.9	2	4	112	0.00	30.236 
01:25	46.5	46.5	46.5	69	36.9	2	4	112	0.00	30.236 
01:30	46.4	46.4	46.4	69	36.8	1	4	112	0.00	30.234 
01:35	46.2	46.2	46.2	69	36.6	1	3	112	0.00	30.234 
01:40	46.2	46.2	46.2	70	37.0	1	3	112	0.00	30.234 
01:45	46.1	46.1	46.1	70	36.9	1	3	112	0.00	30.231 
01:50	46.1	46.1	46.1	71	37.2	0	2	112	0.00	30.231 
01:55	46.0	46.0	46.0	72	37.5	1	3	112	0.00	30.231 
02:00	45.7	45.7	45.7	74	37.9	0	2	180	0.00	30.232 
02:05	45.4	45.4	45.4	76	38.3	0	2	180	0.01	30.232 
02:10	45.1	45.1	45.1	77	38.3	0	1	180	0.00	30.232 
02:15	44.8	44.8	44.8	78	38.4	0	1	180	0.00	30.231 
02:20	44.5	44.5	44.5	79	38.4	0	1	180	0.00	30.231 
02:25	44.3	44.3	44.3	78	37.9	0	1	180	0.00	30.231 
02:30	44.3	44.3	44.3	78	37.9	0	2	158	0.00	30.226 
02:35	44.3	44.3	44.3	79	38.2	0	2	158	0.00	30.226 
02:40	44.2	44.2	44.2	80	38.4	1	2	158	0.00	30.226 
02:45	44.2	44.2	44.2	81	38.7	1	2	135	0.01	30.222 
02:50	44.1	44.1	44.1	82	39.0	1	2	135	0.01	30.222 
02:55	43.9	43.9	43.9	82	38.8	1	2	135	0.00	30.222 
03:00	43.8	43.8	43.8	83	39.0	0	2	135	0.00	30.221 
03:05	43.6	43.6	43.6	84	39.1	0	1	135	0.00	30.221 
03:10	43.5	43.5	43.5	85	39.3	0	1	135	0.01	30.221 
03:15	43.3	43.3	43.3	85	39.1	0	1	135	0.00	30.222 
03:20	43.2	43.2	43.2	86	39.3	1	3	90	0.01	30.222 
03:25	43.1	43.1	43.1	86	39.2	1	3	90	0.00	30.222 
03:30	42.9	42.9	42.9	87	39.3	1	3	90	0.00	30.216 
03:35	42.8	42.8	42.8	87	39.2	0	2	90	0.00	30.216 
03:40	42.8	42.8	42.8	87	39.2	0	0	---	0.00	30.216 
03:45	42.8	42.8	42.8	88	39.5	0	1	90	0.00	30.221 
03:50	42.6	42.6	42.6	88	39.3	0	2	90	0.00	30.221 
03:55	42.6	42.6	42.6	89	39.6	0	1	90	0.01	30.221 
04:00	42.6	42.6	42.6	89	39.6	0	1	90	0.00	30.215 
04:05	42.5	42.5	42.5	89	39.5	0	1	90	0.00	30.215 
04:10	42.5	42.5	42.5	89	39.5	0	1	90	0.00	30.215 
04:15	42.5	42.5	42.5	89	39.5	0	1	90	0.00	30.213 
04:20	42.5	42.5	42.5	89	39.5	0	1	90	0.00	30.213 
04:25	42.5	42.5	42.5	90	39.8	0	0	---	0.00	30.213 
04:30	42.3	42.3	42.3	90	39.6	0	0	---	0.01	30.209 
04:35	42.3	42.3	42.3	91	39.9	0	2	90	0.00	30.209 
04:40	42.3	42.3	42.3	91	39.9	0	1	90	0.00	30.209 
04:45	42.2	42.2	42.2	91	39.8	0	2	90	0.00	30.201 
04:50	42.2	42.2	42.2	91	39.8	1	2	90	0.00	30.201 
04:55	42.2	42.2	42.2	92	40.0	0	0	---	0.00	30.201 
05:00	42.2	42.2	42.2	92	40.0	0	1	90	0.00	30.203 
05:05	42.1	42.1	42.1	92	39.9	1	2	90	0.00	30.203 
05:10	42.1	42.1	42.1	92	39.9	1	3	90	0.00	30.203 
05:15	42.1	42.1	42.1	92	39.9	1	3	90	0.00	30.191 
05:20	42.2	42.2	42.2	91	39.8	2	5	112	0.00	30.191 
05:25	42.5	42.5	42.5	90	39.8	0	2	135	0.00	30.191 
05:30	42.5	42.5	42.5	89	39.5	1	3	90	0.00	30.185 
05:35	42.5	42.5	42.5	89	39.5	0	2	90	0.00	30.185 
05:40	42.6	42.6	42.6	89	39.6	1	3	90	0.00	30.185 
05:45	42.8	42.8	42.8	89	39.8	0	2	90	0.00	30.182 
05:50	42.8	42.8	42.8	88	39.5	1	2	90	0.00	30.182 
05:55	42.9	42.9	42.9	88	39.6	1	3	90	0.00	30.182 
06:00	43.2	43.2	43.2	87	39.6	1	7	135	0.00	30.186 
06:05	43.1	43.1	43.1	87	39.5	0	2	135	0.00	30.186 
06:10	43.1	43.1	43.1	87	39.5	1	4	135	0.00	30.186 
06:15	43.2	43.2	43.2	86	39.3	1	2	90	0.00	30.187 
06:20	43.1	43.1	43.1	86	39.2	0	1	90	0.00	30.187 
06:25	43.1	43.1	43.1	87	39.5	1	3	90	0.00	30.187 
06:30	43.1	43.1	43.1	86	39.2	1	4	90	0.00	30.187 
06:35	43.1	43.1	43.1	86	39.2	0	1	90	0.00	30.187 
06:40	43.1	43.1	43.1	85	38.9	1	2	90	0.00	30.187 
06:45	43.1	43.1	43.1	85	38.9	0	1	90	0.00	30.183 
06:50	43.1	43.1	43.1	85	38.9	0	2	90	0.00	30.183 
06:55	43.1	43.1	43.1	85	38.9	0	1	90	0.00	30.183 
07:00	43.1	43.1	43.1	84	38.6	0	1	90	0.00	30.186 
07:05	43.1	43.1	43.1	84	38.6	1	3	90	0.00	30.186 
07:10	43.1	43.1	43.1	84	38.6	0	2	90	0.00	30.186 
07:15	43.1	43.1	43.1	84	38.6	0	2	90	0.00	30.181 
07:20	43.1	43.1	43.1	84	38.6	0	1	90	0.00	30.181 
07:25	43.1	43.1	43.1	85	38.9	0	2	90	0.00	30.181 
07:30	43.2	43.2	43.2	85	39.0	1	2	112	0.00	30.179 
07:35	43.2	43.2	43.2	86	39.3	0	2	135	0.00	30.179 
07:40	43.3	43.3	43.3	86	39.4	1	3	135	0.00	30.179 
07:45	43.3	43.3	43.3	86	39.4	1	3	112	0.00	30.179 
07:50	43.6	43.6	43.6	85	39.4	1	4	112	0.00	30.179 
07:55	44.1	44.1	44.1	84	39.6	1	4	135	0.00	30.179 
08:00	44.5	44.5	44.5	83	39.7	1	4	90	0.00	30.178 
08:05	44.8	44.8	44.8	83	40.0	1	4	112	0.01	30.178 
08:10	45.1	45.1	45.1	83	40.3	2	4	112	0.00	30.178 
08:15	45.2	45.2	45.2	83	40.3	2	4	90	0.01	30.175 
08:20	45.4	45.4	45.4	84	40.9	1	4	112	0.00	30.175 
08:25	45.4	45.4	45.4	85	41.2	2	5	112	0.00	30.175 
08:30	45.4	45.4	45.4	84	40.9	2	4	90	0.01	30.173 
08:35	45.4	45.4	45.4	85	41.2	1	4	112	0.00	30.173 
08:40	45.4	45.4	45.4	85	41.2	1	3	135	0.01	30.173 
08:45	45.2	45.2	45.2	86	41.3	2	5	112	0.00	30.165 
08:50	45.2	45.2	45.2	86	41.3	2	4	112	0.01	30.165 
08:55	45.4	45.4	45.4	86	41.5	2	6	112	0.00	30.165 
09:00	45.5	45.5	45.5	87	41.9	2	6	112	0.01	30.163 
09:05	45.7	45.7	45.7	87	42.1	1	4	112	0.00	30.163 
09:10	45.7	45.7	45.7	88	42.4	1	4	112	0.01	30.163 
09:15	45.7	45.7	45.7	88	42.4	2	5	90	0.01	30.161 
09:20	45.8	45.8	45.8	88	42.5	2	6	90	0.00	30.161 
09:25	46.0	46.0	46.0	88	42.6	2	5	90	0.01	30.161 
09:30	46.1	46.1	46.1	89	43.0	2	6	112	0.00	30.156 
09:35	46.2	46.2	46.2	88	42.8	2	6	90	0.01	30.156 
09:40	46.2	46.2	46.2	89	43.1	2	5	112	0.00	30.156 
09:45	46.4	46.4	46.4	89	43.3	3	5	112	0.01	30.147 
09:50	46.4	46.4	46.4	89	43.3	3	6	90	0.00	30.147 
09:55	46.5	46.5	46.5	90	43.7	3	6	90	0.00	30.147 
10:00	46.5	46.5	46.5	90	43.7	2	5	112	0.00	30.141 
10:05	46.5	46.5	46.5	90	43.7	2	6	112	0.01	30.141 
10:10	46.5	46.5	46.5	91	44.0	3	10	112	0.00	30.141 
10:15	46.5	46.5	46.5	91	44.0	3	6	112	0.00	30.133 
10:20	46.5	46.5	46.5	91	44.0	3	6	90	0.00	30.133 
10:25	46.5	46.5	46.5	91	44.0	3	9	112	0.00	30.133 
10:30	46.5	46.5	46.5	91	44.0	3	7	90	0.00	30.128 
10:35	46.4	46.4	46.4	92	44.2	3	7	90	0.01	30.128 
10:40	46.4	46.4	46.4	92	44.2	3	9	90	0.00	30.128 
10:45	46.4	46.4	46.4	92	44.2	3	9	90	0.01	30.119 
10:50	46.4	46.4	46.4	92	44.2	3	9	112	0.00	30.119 
10:55	46.4	46.4	46.4	92	44.2	3	7	90	0.00	30.119 
11:00	46.4	46.4	46.4	92	44.2	3	7	90	0.00	30.115 
11:05	46.5	46.5	46.5	92	44.3	3	8	112	0.00	30.115 
11:10	46.7	44.3	46.7	92	44.5	5	11	90	0.01	30.115 
11:15	46.8	45.2	46.8	91	44.3	4	9	112	0.00	30.103 
11:20	46.8	46.8	46.8	91	44.3	3	10	112	0.00	30.103 
11:25	46.7	46.7	46.7	91	44.2	3	7	90	0.01	30.103 
11:30	46.5	46.5	46.5	91	44.0	3	5	112	0.00	30.098 
11:35	46.4	46.4	46.4	91	43.9	3	7	90	0.01	30.098 
11:40	46.4	46.4	46.4	92	44.2	3	6	112	0.01	30.098 
11:45	46.4	46.4	46.4	92	44.2	2	5	112	0.00	30.090 
11:50	46.2	46.2	46.2	92	44.0	3	6	90	0.01	30.090 
11:55	46.2	44.5	46.2	92	44.0	4	7	112	0.00	30.090 
12:00	46.2	44.5	46.2	92	44.0	4	7	90	0.01	30.075 
12:05	46.4	46.4	46.4	92	44.2	3	9	90	0.00	30.075 
12:10	46.4	44.7	46.4	92	44.2	4	9	112	0.01	30.075 
12:15	46.4	46.4	46.4	92	44.2	3	9	90	0.00	30.059 
12:20	46.4	46.4	46.4	92	44.2	3	7	112	0.00	30.059 
12:25	46.5	46.5	46.5	92	44.3	3	11	90	0.01	30.059 
12:30	46.5	46.5	46.5	92	44.3	2	6	112	0.00	30.046 
12:35	46.5	46.5	46.5	92	44.3	2	4	112	0.01	30.046 
12:40	46.5	46.5	46.5	92	44.3	3	6	112	0.01	30.046 
12:45	46.5	46.5	46.5	92	44.3	3	6	112	0.00	30.034 
12:50	46.5	46.5	46.5	93	44.6	3	6	112	0.01	30.034 
12:55	46.7	46.7	46.7	92	44.5	3	9	112	0.01	30.034 
13:00	46.7	46.7	46.7	93	44.8	3	7	90	0.01	30.029 
13:05	46.7	46.7	46.7	93	44.8	3	7	112	0.00	30.029 
13:10	46.7	46.7	46.7	93	44.8	2	6	90	0.00	30.029 
13:15	46.8	46.8	46.8	93	44.9	3	11	90	0.01	30.018 
13:20	46.8	46.8	46.8	93	44.9	3	7	112	0.00	30.018 
13:25	46.8	46.8	46.8	93	44.9	3	6	90	0.00	30.018 
13:30	46.8	46.8	46.8	93	44.9	3	8	112	0.01	30.002 
13:35	46.8	46.8	46.8	93	44.9	3	7	112	0.01	30.002 
13:40	47.0	47.0	47.0	93	45.1	3	8	112	0.00	30.002 
13:45	47.0	45.4	47.0	93	45.1	4	10	90	0.00	29.990 
13:50	47.1	47.1	47.1	93	45.2	3	9	112	0.01	29.990 
13:55	47.4	47.4	47.4	93	45.5	2	6	0	0.00	29.990 
14:00	47.6	47.6	47.6	93	45.7	2	6	248	0.01	29.998 
14:05	47.6	47.6	47.6	93	45.7	2	6	90	0.01	29.998 
14:10	47.7	47.7	47.7	93	45.8	2	5	68	0.00	29.998 
14:15	47.9	47.9	47.9	94	46.3	2	3	90	0.01	29.987 
14:20	48.2	48.2	48.2	94	46.6	2	5	90	0.00	29.987 
14:25	48.3	48.3	48.3	94	46.7	2	9	0	0.01	29.987 
14:30	48.5	48.5	48.5	94	46.9	2	4	90	0.00	29.978 
14:35	48.5	48.5	48.5	94	46.9	2	5	112	0.01	29.978 
14:40	48.6	48.6	48.6	94	47.0	2	10	135	0.01	29.978 
14:45	48.6	48.6	48.6	94	47.0	2	6	90	0.01	29.967 
14:50	48.6	48.6	48.6	94	47.0	3	7	90	0.00	29.967 
14:55	48.6	48.6	48.6	94	47.0	3	7	112	0.01	29.967 
15:00	48.6	48.6	48.6	94	47.0	3	6	112	0.00	29.953 
15:05	48.8	48.8	48.8	94	47.1	2	6	90	0.01	29.953 
15:10	48.8	48.8	48.8	94	47.1	2	4	112	0.00	29.953 
15:15	48.8	48.8	48.8	94	47.1	1	3	45	0.01	29.957 
15:20	48.9	48.9	48.9	95	47.5	2	6	90	0.00	29.957 
15:25	49.1	49.1	49.1	95	47.7	3	6	112	0.00	29.957 
15:30	49.2	49.2	49.2	95	47.8	3	7	90	0.00	29.954 
15:35	49.4	49.4	49.4	95	48.0	3	9	90	0.01	29.954 
15:40	49.5	48.3	49.5	94	47.8	4	7	90	0.00	29.954 
15:45	49.5	49.5	49.5	94	47.8	3	7	112	0.01	29.944 
15:50	49.5	49.5	49.5	94	47.8	2	7	90	0.00	29.944 
15:55	49.5	49.5	49.5	94	47.8	3	7	112	0.00	29.944 
16:00	49.5	48.3	49.5	94	47.8	4	11	112	0.01	29.938 
16:05	49.5	48.3	49.5	94	47.8	4	12	90	0.01	29.938 
16:10	49.5	48.3	49.5	94	47.8	4	10	90	0.00	29.938 
16:15	49.4	48.2	49.4	94	47.7	4	7	90	0.01	29.932 
16:20	49.4	48.2	49.4	94	47.7	4	11	90	0.01	29.932 
16:25	49.4	49.4	49.4	94	47.7	3	9	90	0.01	29.932 
16:30	49.2	49.2	49.2	94	47.5	3	7	90	0.00	29.940 
16:35	49.2	49.2	49.2	94	47.5	3	7	112	0.00	29.940 
16:40	49.4	49.4	49.4	94	47.7	3	11	68	0.00	29.940 
16:45	49.4	49.4	49.4	94	47.7	3	11	68	0.00	29.934 
16:50	49.2	49.2	49.2	94	47.5	2	5	112	0.00	29.934 
16:55	49.2	49.2	49.2	93	47.3	2	5	90	0.00	29.934 
17:00	49.2	49.2	49.2	93	47.3	2	7	270	0.00	29.947 
17:05	49.2	49.2	49.2	93	47.3	2	7	68	0.01	29.947 
17:10	49.2	49.2	49.2	93	47.3	3	6	90	0.00	29.947 
17:15	49.2	49.2	49.2	93	47.3	2	11	90	0.00	29.940 
17:20	49.2	49.2	49.2	93	47.3	3	7	112	0.00	29.940 
17:25	49.2	49.2	49.2	93	47.3	2	6	90	0.00	29.940 
17:30	49.2	49.2	49.2	93	47.3	3	7	90	0.00	29.940 
17:35	49.2	49.2	49.2	93	47.3	3	9	90	0.00	29.940 
17:40	49.2	49.2	49.2	93	47.3	3	10	112	0.00	29.940 
17:45	49.2	49.2	49.2	93	47.3	3	6	112	0.00	29.939 
17:50	49.2	49.2	49.2	93	47.3	3	9	90	0.00	29.939 
17:55	49.2	49.2	49.2	93	47.3	2	5	90	0.01	29.939 
18:00	49.2	49.2	49.2	93	47.3	2	11	112	0.00	29.935 
18:05	49.1	49.1	49.1	93	47.2	2	7	90	0.00	29.935 
18:10	49.1	49.1	49.1	93	47.2	2	5	90	0.01	29.935 
18:15	49.1	49.1	49.1	94	47.4	2	6	90	0.01	29.936 
18:20	48.9	48.9	48.9	94	47.2	2	4	90	0.01	29.936 
18:25	48.9	48.9	48.9	94	47.2	1	4	112	0.02	29.936 
18:30	48.9	48.9	48.9	94	47.2	2	4	90	0.02	29.936 
18:35	48.8	48.8	48.8	95	47.4	1	5	90	0.01	29.936 
18:40	48.8	48.8	48.8	95	47.4	1	3	248	0.02	29.936 
18:45	48.8	48.8	48.8	95	47.4	1	4	248	0.02	29.932 
18:50	48.8	48.8	48.8	95	47.4	1	4	248	0.01	29.932 
18:55	48.8	48.8	48.8	95	47.4	2	4	248	0.00	29.932 
19:00	48.8	48.8	48.8	95	47.4	2	4	248	0.03	29.941 
19:05	48.8	48.8	48.8	96	47.7	1	4	248	0.03	29.941 
19:10	48.8	48.8	48.8	96	47.7	1	4	248	0.03	29.941 
19:15	48.8	48.8	48.8	96	47.7	2	4	248	0.02	29.930 
19:20	48.9	48.9	48.9	96	47.8	2	7	248	0.02	29.930 
19:25	48.9	48.9	48.9	96	47.8	1	3	248	0.02	29.930 
19:30	48.9	48.9	48.9	96	47.8	2	5	292	0.01	29.923 
19:35	49.1	49.1	49.1	95	47.7	2	7	90	0.01	29.923 
19:40	48.9	48.9	48.9	95	47.5	1	3	112	0.01	29.923 
19:45	48.9	48.9	48.9	95	47.5	1	2	112	0.00	29.918 
19:50	48.9	48.9	48.9	95	47.5	1	3	90	0.00	29.918 
19:55	48.9	48.9	48.9	95	47.5	1	2	90	0.00	29.918 
20:00	48.9	48.9	48.9	95	47.5	1	3	112	0.00	29.918 
20:05	48.9	48.9	48.9	95	47.5	2	4	90	0.00	29.918 
20:10	48.9	48.9	48.9	95	47.5	2	5	90	0.00	29.918 
20:15	48.9	48.9	48.9	95	47.5	2	5	90	0.00	29.920 
20:20	48.9	48.9	48.9	95	47.5	2	5	90	0.00	29.920 
20:25	49.1	49.1	49.1	95	47.7	2	4	90	0.00	29.920 
20:30	49.1	49.1	49.1	95	47.7	1	4	90	0.00	29.923 
20:35	49.1	49.1	49.1	95	47.7	1	6	22	0.00	29.923 
20:40	49.2	49.2	49.2	95	47.8	1	7	248	0.00	29.923 
20:45	49.4	49.4	49.4	95	48.0	1	5	270	0.00	29.918 
20:50	49.5	49.5	49.5	95	48.1	2	9	248	0.00	29.918 
20:55	49.5	49.5	49.5	95	48.1	1	3	248	0.00	29.918 
21:00	49.6	49.6	49.6	95	48.2	2	5	270	0.00	29.914 
21:05	49.6	49.6	49.6	95	48.2	1	6	270	0.00	29.914 
21:10	49.5	49.5	49.5	94	47.8	1	5	270	0.00	29.914 
21:15	49.5	49.5	49.5	94	47.8	1	3	90	0.00	29.905 
21:20	49.5	49.5	49.5	94	47.8	1	4	90	0.00	29.905 
21:25	49.6	49.6	49.6	94	47.9	1	4	90	0.00	29.905 
21:30	49.8	49.8	49.8	94	48.1	2	6	248	0.00	29.904 
21:35	49.8	49.8	49.8	94	48.1	2	6	248	0.00	29.904 
21:40	49.8	49.8	49.8	94	48.1	1	3	248	0.00	29.904 
21:45	49.8	49.8	49.8	94	48.1	1	3	0	0.00	29.901 
21:50	49.8	49.8	49.8	94	48.1	1	3	338	0.00	29.901 
21:55	49.9	49.9	49.9	94	48.2	1	5	292	0.00	29.901 
22:00	49.9	49.9	49.9	94	48.2	1	3	315	0.00	29.903 
22:05	50.1	50.1	50.1	94	48.4	2	6	270	0.00	29.903 
22:10	50.1	50.1	50.1	94	48.4	2	7	90	0.00	29.903 
22:15	50.2	50.2	50.2	93	48.3	3	9	248	0.00	29.896 
22:20	50.4	50.4	50.4	93	48.5	2	5	270	0.00	29.896 
22:25	50.4	50.4	50.4	93	48.5	2	9	112	0.00	29.896 
22:30	50.5	50.5	50.5	93	48.6	2	6	248	0.00	29.891 
22:35	50.7	50.7	50.7	93	48.7	2	7	270	0.00	29.891 
22:40	50.7	50.7	50.7	93	48.7	2	9	248	0.00	29.891 
22:45	50.7	50.7	50.7	93	48.7	2	6	270	0.00	29.890 
22:50	50.8	50.8	50.8	92	48.6	1	5	270	0.00	29.890 
22:55	50.8	50.8	50.8	92	48.6	2	6	248	0.00	29.890 
23:00	50.8	50.8	50.8	92	48.6	2	5	248	0.00	29.888 
23:05	51.0	51.0	51.0	92	48.8	3	9	248	0.00	29.888 
23:10	51.1	51.1	51.1	92	48.9	3	7	248	0.00	29.888 
23:15	51.1	51.1	51.1	92	48.9	3	6	248	0.00	29.890 
23:20	51.3	51.3	51.3	91	48.8	3	6	248	0.00	29.890 
23:25	51.3	51.3	51.3	91	48.8	3	7	248	0.00	29.890 
23:30	51.3	51.3	51.3	91	48.8	4	9	248	0.00	29.890 
23:35	51.3	51.3	51.3	90	48.5	3	8	248	0.00	29.890 
23:40	51.1	51.1	51.1	90	48.3	2	4	248	0.00	29.890 
23:45	51.1	51.1	51.1	90	48.3	3	7	248	0.00	29.890 
23:50	51.1	51.1	51.1	90	48.3	4	7	248	0.00	29.890 
23:55	51.1	51.1	51.1	89	48.0	3	7	248	0.00	29.890 

CoCoRaHS
IN-AL-39
A2 Web Hosting
Creative Commons License
GoDaddy
Look for:

loaded 2017-10-19 12:14:21 • last modified 2010-11-18 10:43:29
Privacy PolicyDisclaimer
• wx.awcolley.com is powered by PmWiki v.2002016 •
• all content (unless otherwise noted) © 2017 A W Colley